Aviation Digital Data Service (ADDS)

Output produced by METARs form (2311 UTC 23 May 2022)
found at http://www.aviationweather.gov/metar/data/
 
KABQ 231740Z 2318/2418 23010G18KT P6SM BKN150 
     FM231900 25014G23KT P6SM BKN120 
     FM232200 34022G34KT P6SM BKN100 
     TEMPO 2322/2402 6SM BLDU SCT005 
     FM240300 36015KT P6SM BKN100 
     FM240700 35007KT P6SM SCT100 
     FM241700 32012KT P6SM FEW100
       
KABY 231720Z 2318/2418 21011KT P6SM SHRA VCTS SCT035CB 
     TEMPO 2318/2322 5SM -TSRA BKN025CB BKN050 
     FM240000 29005KT P6SM SCT040 BKN100 
     FM241000 00000KT P6SM BKN015 
     FM241500 22005KT P6SM SCT015 BKN050
       
KACT 232112Z 2321/2418 12008KT P6SM VCSH BKN050 
     FM240200 12010KT P6SM VCSH BKN035 OVC110 
     FM240600 15011KT P6SM VCTS OVC020CB 
     TEMPO 2408/2411 13007KT P6SM TSRA OVC015CB 
     FM241300 20012KT P6SM VCSH BKN045
       
KACV 232121Z 2321/2418 32015G25KT P6SM SCT010 BKN200 
     FM240300 VRB05KT 6SM BR OVC007 
     FM240600 15004KT 3SM BR OVC005
       
TAF KADW 231700Z 2317/2423 01008KT 9999 FEW060 SCT090 QNH3021INS 
     BECMG 2318/2319 02006KT 9999 SCT060 BKN100 QNH3018INS 
     BECMG 2322/2323 35006KT 8000 -SHRA SCT040 OVC070 QNH3018INS 
     BECMG 2403/2404 02006KT 6000 -RA BR BKN040 OVC070 QNH3018INS 
     BECMG 2407/2408 13006KT 4000 -RA BR BKN010 OVC040 QNH3015INS 
     BECMG 2413/2414 08006KT 8000 -SHRA BR OVC015 QNH3015INS 
     BECMG 2416/2417 09009KT 9999 VCSH SCT010 OVC020 QNH3021INS TX23/2320Z
TN16/2412Z
       
KAEG 231740Z 2318/2418 26015G25KT P6SM BKN150 
     FM232100 32024G35KT 6SM BLDU BKN120 
     FM240300 33015KT P6SM BKN100 
     FM240600 31008KT P6SM SCT100 
     FM241700 30013G20KT P6SM FEW100
       
KAEX 231723Z 2318/2418 VRB04KT P6SM OVC015 
     FM232200 06007KT P6SM SCT030 
     FM240800 10005KT P6SM OVC009 
     FM241400 14010G16KT P6SM VCSH OVC015
       
TAF COR KAFF 2319/2501 36012G18KT 9999 VCSH BKN020 BKN040 BKN250 610209
QNH2998INS WND 330V040 
     TEMPO 2319/2322 VRB20G30KT -SHRA VCTS BKN015CB BKN250 
     BECMG 2322/2323 35012KT 9999 -RA SCT008 BKN015 OVC080 630209 QNH2999INS 
     BECMG 2404/2405 06012KT 8000 -RASN OVC008 620089 QNH2999INS 
     BECMG 2416/2417 35009KT 9999 VCSH SCT008 BKN040 BKN080 630409 QNH2999INS 
     TEMPO 2420/2501 VRB20G30KT -SHRA VCTS BKN030CB OVC250 TX12/2320Z TN03/2411Z
LAST NO AMDS AFT 2321 NEXT 2411
       
KAFW 232112Z 2321/2418 09011KT P6SM BKN035 
     FM240200 11012KT P6SM VCSH BKN030 
     FM240600 13012KT P6SM VCTS BKN025CB 
     TEMPO 2410/2414 13012KT P6SM TSRA BKN009CB 
     FM241500 14011KT P6SM VCSH BKN012
       
KAGC 231720Z 2318/2418 04005KT P6SM OVC100 
     FM241200 08005KT P6SM BKN025
       
KAGS 232046Z 2321/2418 VRB05KT P6SM VCSH SCT015 BKN040 
     TEMPO 2321/2323 VRB15G25KT 1SM TSRA BR BKN020CB BKN035 
     FM240300 VRB04KT P6SM BKN100 
     FM240700 VRB03KT 3SM BR BKN100 
     TEMPO 2409/2411 1SM BR SCT007 
     FM241500 23006KT P6SM OVC050
       
KAHN 231759Z 2318/2418 18009G19KT P6SM SCT014 BKN021 OVC030 
     FM232100 21012G27KT P6SM BKN020 
     FM232300 24011KT P6SM BKN025 
     FM240700 24004KT 4SM BR BKN010 
     FM240900 VRB03KT 2SM BR BKN005 
     FM241400 25005KT P6SM BKN012
       
KAIA 231732Z 2318/2418 13015KT P6SM VCSH BKN015 
     TEMPO 2318/2320 2SM -RA BR BKN009 
     FM232300 13010KT P6SM BKN015 
     FM240300 11008KT P6SM SCT030 
     FM240900 VRB06KT P6SM BKN008 
     FM241600 11008KT P6SM BKN025
       
KALB 231727Z 2318/2418 36010G16KT P6SM SCT050 BKN200 
     FM240600 01005KT P6SM BKN070 
     FM241300 06004KT P6SM SCT060 
     FM241500 12004KT P6SM SCT060
       
KALS 232123Z 2321/2418 25014G28KT P6SM BKN100 BKN140 
     FM240000 01015G25KT P6SM BKN080 OVC120 
     FM240300 10007KT P6SM VCSH SCT030 BKN050 
     FM240600 05007KT P6SM VCSH SCT020 BKN035 
     FM240900 05007KT P6SM OVC020 
     FM241500 01007KT P6SM OVC025
       
KALW 231742Z 2318/2418 22007KT P6SM BKN110 
     FM232300 22013KT P6SM VCSH BKN070 BKN110 
     FM240500 17008KT P6SM BKN100 OVC250 
     FM241200 19005KT P6SM BKN250
       
KAMA 231737Z 2318/2418 16018G26KT P6SM BKN020 
     FM232300 15021G29KT 6SM -TSRA OVC015CB 
     FM240200 13018KT 5SM SHRA OVC006 
     FM241000 09012KT 4SM SHRA OVC005 
     FM241400 34011KT 4SM BR BKN006 WS020/25040KT
       
KANB 231734Z 2318/2418 25008KT P6SM VCSH BKN035 
     TEMPO 2318/2321 5SM SHRA BR OVC018 
     FM240000 VRB03KT P6SM OVC040 
     FM240600 VRB03KT 3SM BR BKN090 
     FM241000 00000KT 1SM BR OVC007 
     FM241400 VRB03KT P6SM OVC012
       
KAND 232217Z 2322/2418 19010KT P6SM VCSH BKN070 
     FM240200 21007KT 5SM BR OVC010 
     FM240700 22002KT 2SM BR OVC008 
     FM241100 24004KT 2SM BR OVC010
       
KAOO 232134Z 2322/2418 10004KT 6SM -RA BR OVC070 
     FM240800 10003KT 6SM -DZ BR OVC025 
     FM241000 13005KT 6SM -DZ BR OVC015
       
KAPA 231724Z 2318/2418 03012KT P6SM VCSH BKN030 BKN120 
     FM232000 04012KT P6SM VCSH SCT050 BKN080 
     FM240400 11005KT P6SM VCSH BKN040 OVC060 
     TEMPO 2406/2410 -SHRA BKN020 
     FM241400 VRB05KT P6SM FEW020 BKN050 OVC120
       
KAPC 232216Z 2322/2418 20014KT P6SM SKC 
     FM240500 VRB05KT P6SM SKC WS020/36030KT 
     FM241600 01011G18KT P6SM SKC
       
KAPF 232055Z 2321/2418 21013KT P6SM VCSH SCT040 BKN060 
     FM240200 08007KT P6SM FEW030 SCT250 
     FM241400 12011KT P6SM SCT025
       
KAPN 231720Z 2318/2418 36010KT P6SM SCT050 
     FM240100 00000KT P6SM SCT250 
     FM241500 06006KT P6SM SCT150 BKN250
       
KARA 231723Z 2318/2418 VRB06KT P6SM VCSH SCT015 BKN025 
     FM232300 06005KT P6SM BKN050 
     FM240600 11006KT P6SM OVC020 
     FM241200 14010KT 6SM BR VCTS OVC020CB 
     FM241400 17012G20KT 6SM TSRA BR SCT015 OVC025CB
       
KASD 231757Z 2318/2418 15010KT P6SM VCSH SCT025 BKN050 
     TEMPO 2320/2324 4SM TSRA BR BKN025CB 
     FM240300 11008KT P6SM SCT020 BKN050 
     FM240800 VRB03KT 5SM BR BKN015 BKN035 
     FM241400 15008KT P6SM SCT025 BKN080
       
KASE 231740Z 2318/2418 34008G17KT P6SM FEW100 SCT250 
     FM240100 29008KT P6SM SCT080 BKN100 
     FM240300 20004KT P6SM SCT080 BKN100 
     FM240500 19005KT P6SM BKN080 
     FM241500 31005KT P6SM SCT050 BKN070
       
KASN 231957Z 2320/2418 25009KT P6SM VCSH SCT030 OVC060 
     FM240000 03006KT P6SM OVC080 
     FM240600 00000KT 5SM BR BKN100 
     FM241000 00000KT 1 1/2SM BR OVC009 
     FM241400 VRB03KT P6SM OVC020
       
KAST 231818Z 2318/2418 35006KT P6SM BKN015 OVC030 
     FM240400 31005KT P6SM OVC025 
     FM240600 31005KT P6SM OVC250 
     FM240900 29003KT P6SM OVC025
       
KATW 231722Z 2318/2418 10005KT P6SM BKN060 
     FM232300 11004KT P6SM SCT070 BKN140 
     FM240200 VRB02KT P6SM BKN140 
     FM241400 09006KT P6SM SCT080 BKN140
       
KATL 232147Z 2322/2424 27015G25KT P6SM VCSH BKN030 BKN070 BKN120 
     FM240100 26010KT P6SM BKN020 
     FM241000 VRB03KT 2SM BR OVC006 
     FM241200 28004KT P6SM BKN004 
     FM241800 22006KT P6SM BKN035 
     PROB30 2418/2424 4SM TSRA BR OVC025CB
       
KATY 232202Z 2322/2418 21010KT P6SM VCTS BKN070CB 
     FM240200 17006KT P6SM BKN100 
     FM241700 15010G17KT P6SM BKN100
       
KAUG 231736Z 2318/2418 35009G14KT P6SM SKC 
     FM240000 32004KT P6SM SCT250 
     FM241500 07007KT P6SM SCT150
       
KAUS 232228Z 2322/2424 19007KT P6SM SCT050 BKN100 BKN200 
     FM240200 15009KT P6SM VCSH SCT025 BKN150 
     FM240500 16010KT P6SM -SHRA BKN025 OVC050 
     TEMPO 2406/2410 VRB25KT 2SM +TSRA BR OVC008CB 
     FM241000 15008KT P6SM SCT018 BKN060 
     FM241800 19012KT P6SM VCSH SCT030
       
KAUW 231722Z 2318/2418 VRB04KT P6SM BKN060 
     FM232200 16005KT P6SM SCT070 BKN200 
     FM240200 13003KT P6SM BKN200 
     FM240600 VRB02KT P6SM SCT140 BKN200 
     FM241400 14006KT P6SM SCT080 BKN140
       
KAVL 231741Z 2318/2418 15008KT 3SM -SHRA BR OVC010 
     FM240400 15004KT 2SM BR OVC005 
     FM241000 33003KT 1/2SM FG BKN003 
     FM241300 34004KT 1SM BR BKN005 
     FM241500 35004KT P6SM BKN016
       
KAVP 231735Z 2318/2418 35006KT P6SM SCT250 
     FM241400 12005KT P6SM BKN035 
     FM241700 15006G11KT P6SM BKN035
       
KAXN 231720Z 2318/2418 18009KT P6SM SCT090 
     FM240100 18009KT P6SM BKN250 
     FM240500 21005KT P6SM BKN100 
     FM241500 15007KT P6SM FEW045 SCT250
       
KAZO 231730Z 2318/2418 06006KT P6SM BKN050 
     FM240000 06003KT P6SM SCT150 
     FM241500 07008KT P6SM SCT050 BKN250